GLD1204 SBBV-TGPY
Flight info
| Callsign | GLD1204 |
|---|---|
| Flight time | 1h 25m |
| Altitude | 39000 |
| Route | ANLOL DCT ILNER DCT LOLER DCT KUMIX DCT TOBLA DCT ISAKU DCT POS DCT DUKLA DCT IMORO |
| Aircraft | A20N/M-SDE2E3FGHIRWXY/LB1 |
Departure
| Time | 2026-04-25 19:08 |
|---|---|
| Airport | Atlas Brasil Cantanhede International Airport (SBBV) |
Arrival
| Time | 2026-04-25 20:33 |
|---|---|
| Airport | Maurice Bishop International Airport (TGPY) |
| Time | Latitude | Longitude | Altitude | Speed | Heading |
|---|---|---|---|---|---|
| 2026-04-25 18:57 | 2.84204 | -60.69302 | 271 ft | 0 kts | 154° |
| 2026-04-25 18:59 | 2.84208 | -60.69304 | 270 ft | 1 kts | 154° |
| 2026-04-25 18:59 | 2.84222 | -60.69311 | 284 ft | 1 kts | 154° |
| 2026-04-25 19:00 | 2.84236 | -60.69318 | 270 ft | 1 kts | 133° |
| 2026-04-25 19:00 | 2.84241 | -60.69324 | 268 ft | 1 kts | 105° |
| 2026-04-25 19:01 | 2.84242 | -60.69334 | 269 ft | 0 kts | 66° |
| 2026-04-25 19:04 | 2.84253 | -60.69308 | 271 ft | 6 kts | 66° |
| 2026-04-25 19:04 | 2.84283 | -60.69258 | 271 ft | 10 kts | 44° |
| 2026-04-25 19:05 | 2.84288 | -60.69350 | 270 ft | 13 kts | 241° |
| 2026-04-25 19:05 | 2.84182 | -60.69548 | 270 ft | 19 kts | 245° |
| 2026-04-25 19:05 | 2.84118 | -60.69673 | 270 ft | 21 kts | 242° |
| 2026-04-25 19:06 | 2.84043 | -60.69811 | 270 ft | 24 kts | 242° |
| 2026-04-25 19:06 | 2.84018 | -60.70071 | 270 ft | 20 kts | 344° |
| 2026-04-25 19:06 | 2.84098 | -60.70048 | 270 ft | 0 kts | 54° |
| 2026-04-25 19:07 | 2.84323 | -60.69611 | 268 ft | 97 kts | 62° |
| 2026-04-25 19:07 | 2.84721 | -60.68845 | 275 ft | 147 kts | 61° |
| 2026-04-25 19:08 | 2.85705 | -60.66949 | 1217 ft | 160 kts | 64° |
| 2026-04-25 19:08 | 2.86223 | -60.65900 | 1645 ft | 178 kts | 63° |
| 2026-04-25 19:09 | 2.89196 | -60.63049 | 3096 ft | 244 kts | 4° |
| 2026-04-25 19:09 | 2.90357 | -60.63094 | 3469 ft | 259 kts | 352° |
| 2026-04-25 19:09 | 2.94650 | -60.64081 | 5503 ft | 276 kts | 348° |
| 2026-04-25 19:10 | 2.96550 | -60.64466 | 6444 ft | 280 kts | 350° |
| 2026-04-25 19:10 | 2.98484 | -60.64796 | 7342 ft | 284 kts | 351° |
| 2026-04-25 19:10 | 3.00449 | -60.65099 | 8230 ft | 288 kts | 352° |
| 2026-04-25 19:10 | 3.02445 | -60.65391 | 9119 ft | 292 kts | 352° |
| 2026-04-25 19:11 | 3.04466 | -60.65684 | 9964 ft | 296 kts | 352° |
| 2026-04-25 19:11 | 3.06560 | -60.65988 | 10417 ft | 315 kts | 352° |
| 2026-04-25 19:11 | 3.08786 | -60.66315 | 10661 ft | 338 kts | 352° |
| 2026-04-25 19:11 | 3.11163 | -60.66666 | 11165 ft | 349 kts | 352° |
| 2026-04-25 19:12 | 3.13583 | -60.67025 | 11929 ft | 353 kts | 352° |
| 2026-04-25 19:12 | 3.16025 | -60.67387 | 12676 ft | 357 kts | 352° |
| 2026-04-25 19:12 | 3.18495 | -60.67753 | 13420 ft | 361 kts | 352° |
| 2026-04-25 19:12 | 3.21001 | -60.68124 | 14087 ft | 365 kts | 352° |
| 2026-04-25 19:13 | 3.23527 | -60.68498 | 14735 ft | 368 kts | 352° |
| 2026-04-25 19:13 | 3.26084 | -60.68877 | 15365 ft | 372 kts | 352° |
| 2026-04-25 19:13 | 3.28660 | -60.69258 | 15987 ft | 376 kts | 352° |
| 2026-04-25 19:13 | 3.31225 | -60.69638 | 16586 ft | 380 kts | 352° |
| 2026-04-25 19:14 | 3.33853 | -60.70027 | 17179 ft | 383 kts | 352° |
| 2026-04-25 19:14 | 3.34749 | -60.70160 | 17374 ft | 385 kts | 352° |
| 2026-04-25 19:14 | 3.39191 | -60.70819 | 18310 ft | 391 kts | 352° |
| 2026-04-25 19:14 | 3.41894 | -60.71221 | 18805 ft | 394 kts | 352° |
| 2026-04-25 19:15 | 3.44618 | -60.71625 | 19303 ft | 397 kts | 352° |
| 2026-04-25 19:15 | 3.47369 | -60.72033 | 19809 ft | 400 kts | 352° |
| 2026-04-25 19:15 | 3.50097 | -60.72437 | 20269 ft | 403 kts | 352° |
| 2026-04-25 19:15 | 3.52889 | -60.72852 | 20750 ft | 407 kts | 352° |
| 2026-04-25 19:16 | 3.55707 | -60.73270 | 21221 ft | 410 kts | 352° |
| 2026-04-25 19:16 | 3.58534 | -60.73689 | 21697 ft | 413 kts | 352° |
| 2026-04-25 19:16 | 3.61400 | -60.74115 | 22147 ft | 417 kts | 352° |
| 2026-04-25 19:16 | 3.64275 | -60.74542 | 22589 ft | 420 kts | 352° |
| 2026-04-25 19:17 | 3.67183 | -60.74973 | 23035 ft | 423 kts | 352° |
| 2026-04-25 19:17 | 3.70107 | -60.75407 | 23457 ft | 427 kts | 352° |
| 2026-04-25 19:17 | 3.73056 | -60.75845 | 23833 ft | 429 kts | 352° |
| 2026-04-25 19:17 | 3.75999 | -60.76283 | 24249 ft | 430 kts | 352° |
| 2026-04-25 19:18 | 3.78989 | -60.76728 | 24642 ft | 433 kts | 352° |
| 2026-04-25 19:18 | 3.81939 | -60.77166 | 25007 ft | 435 kts | 352° |
| 2026-04-25 19:18 | 3.84941 | -60.77612 | 25374 ft | 437 kts | 352° |
| 2026-04-25 19:18 | 3.87961 | -60.78020 | 25729 ft | 439 kts | 356° |
| 2026-04-25 19:19 | 3.91023 | -60.78292 | 26076 ft | 441 kts | 356° |
| 2026-04-25 19:19 | 3.94093 | -60.78568 | 26411 ft | 444 kts | 355° |
| 2026-04-25 19:19 | 3.97177 | -60.78847 | 26758 ft | 446 kts | 355° |
| 2026-04-25 19:19 | 3.99232 | -60.79034 | 26980 ft | 448 kts | 355° |
| 2026-04-25 19:20 | 4.03400 | -60.79413 | 27425 ft | 450 kts | 355° |
| 2026-04-25 19:20 | 4.06535 | -60.79698 | 27744 ft | 453 kts | 356° |
| 2026-04-25 19:20 | 4.09677 | -60.79984 | 28058 ft | 455 kts | 356° |
| 2026-04-25 19:20 | 4.12800 | -60.80267 | 28379 ft | 457 kts | 356° |
| 2026-04-25 19:21 | 4.15968 | -60.80555 | 28695 ft | 459 kts | 356° |
| 2026-04-25 19:21 | 4.22370 | -60.81137 | 29261 ft | 463 kts | 356° |
| 2026-04-25 19:21 | 4.25588 | -60.81429 | 29529 ft | 466 kts | 356° |
| 2026-04-25 19:22 | 4.28823 | -60.81723 | 29813 ft | 468 kts | 356° |
| 2026-04-25 19:22 | 4.32081 | -60.82019 | 30098 ft | 470 kts | 356° |
| 2026-04-25 19:22 | 4.38628 | -60.82615 | 30568 ft | 475 kts | 356° |
| 2026-04-25 19:23 | 4.41932 | -60.82915 | 30818 ft | 477 kts | 356° |
| 2026-04-25 19:23 | 4.48560 | -60.83518 | 31442 ft | 478 kts | 356° |
| 2026-04-25 19:23 | 4.51837 | -60.83816 | 31794 ft | 478 kts | 356° |
| 2026-04-25 19:24 | 4.55149 | -60.84118 | 32138 ft | 477 kts | 356° |
| 2026-04-25 19:24 | 4.58453 | -60.84418 | 32457 ft | 477 kts | 356° |
| 2026-04-25 19:24 | 4.65073 | -60.85021 | 33118 ft | 477 kts | 356° |
| 2026-04-25 19:25 | 4.71400 | -60.85597 | 33709 ft | 477 kts | 356° |
| 2026-04-25 19:25 | 4.74620 | -60.85897 | 33972 ft | 477 kts | 356° |
| 2026-04-25 19:25 | 4.77924 | -60.86209 | 34248 ft | 476 kts | 356° |
| 2026-04-25 19:26 | 4.81216 | -60.86521 | 34524 ft | 475 kts | 356° |
| 2026-04-25 19:26 | 4.84508 | -60.86832 | 34798 ft | 474 kts | 356° |
| 2026-04-25 19:26 | 4.87796 | -60.87142 | 35079 ft | 473 kts | 356° |
| 2026-04-25 19:26 | 4.91074 | -60.87451 | 35353 ft | 473 kts | 356° |
| 2026-04-25 19:27 | 4.94347 | -60.87759 | 35626 ft | 472 kts | 356° |
| 2026-04-25 19:27 | 4.95409 | -60.87859 | 35712 ft | 471 kts | 356° |
| 2026-04-25 19:27 | 5.00875 | -60.88374 | 36164 ft | 470 kts | 356° |
| 2026-04-25 19:27 | 5.04130 | -60.88680 | 36440 ft | 469 kts | 356° |
| 2026-04-25 19:28 | 5.07379 | -60.88986 | 36699 ft | 468 kts | 356° |
| 2026-04-25 19:28 | 5.10617 | -60.89291 | 36947 ft | 467 kts | 356° |
| 2026-04-25 19:28 | 5.13853 | -60.89595 | 37188 ft | 466 kts | 356° |
| 2026-04-25 19:28 | 5.17080 | -60.89899 | 37417 ft | 466 kts | 356° |
| 2026-04-25 19:29 | 5.20306 | -60.90203 | 37631 ft | 465 kts | 356° |
| 2026-04-25 19:29 | 5.23485 | -60.90502 | 37852 ft | 464 kts | 355° |
| 2026-04-25 19:29 | 5.26701 | -60.90805 | 38061 ft | 463 kts | 355° |
| 2026-04-25 19:29 | 5.29920 | -60.91108 | 38267 ft | 463 kts | 355° |
| 2026-04-25 19:30 | 5.33122 | -60.91410 | 38505 ft | 463 kts | 355° |
| 2026-04-25 19:30 | 5.36331 | -60.91712 | 38744 ft | 461 kts | 355° |
| 2026-04-25 19:30 | 5.39522 | -60.92013 | 38911 ft | 460 kts | 355° |
| 2026-04-25 19:30 | 5.42719 | -60.92313 | 38926 ft | 460 kts | 355° |
| 2026-04-25 19:31 | 5.49052 | -60.92898 | 38924 ft | 459 kts | 355° |
| 2026-04-25 19:31 | 5.55433 | -60.93486 | 38921 ft | 460 kts | 355° |
| 2026-04-25 19:32 | 5.61826 | -60.94077 | 38916 ft | 461 kts | 355° |
| 2026-04-25 19:32 | 5.66097 | -60.94472 | 38919 ft | 461 kts | 355° |
| 2026-04-25 19:33 | 5.74616 | -60.95259 | 38922 ft | 462 kts | 355° |
| 2026-04-25 19:33 | 5.80988 | -60.95849 | 38917 ft | 462 kts | 355° |
| 2026-04-25 19:34 | 5.86365 | -60.96346 | 38917 ft | 462 kts | 355° |
| 2026-04-25 19:34 | 5.92740 | -60.96936 | 38916 ft | 463 kts | 355° |
| 2026-04-25 19:35 | 5.99152 | -60.97530 | 38915 ft | 462 kts | 355° |
| 2026-04-25 19:35 | 6.05554 | -60.98122 | 38913 ft | 462 kts | 355° |
| 2026-04-25 19:36 | 6.11955 | -60.98715 | 38912 ft | 462 kts | 355° |
| 2026-04-25 19:36 | 6.18355 | -60.99308 | 38907 ft | 461 kts | 355° |
| 2026-04-25 19:37 | 6.24749 | -60.99901 | 38906 ft | 461 kts | 355° |
| 2026-04-25 19:37 | 6.31146 | -61.00493 | 38899 ft | 461 kts | 355° |
| 2026-04-25 19:38 | 6.37487 | -61.01081 | 38894 ft | 461 kts | 355° |
| 2026-04-25 19:38 | 6.43872 | -61.01673 | 38887 ft | 460 kts | 355° |
| 2026-04-25 19:39 | 6.50253 | -61.02265 | 38882 ft | 460 kts | 355° |
| 2026-04-25 19:39 | 6.56638 | -61.02857 | 38873 ft | 460 kts | 355° |
| 2026-04-25 19:40 | 6.63019 | -61.03449 | 38864 ft | 460 kts | 355° |
| 2026-04-25 19:40 | 6.69411 | -61.04042 | 38863 ft | 460 kts | 355° |
| 2026-04-25 19:41 | 6.75751 | -61.04631 | 38856 ft | 461 kts | 355° |
| 2026-04-25 19:41 | 6.81109 | -61.05129 | 38855 ft | 461 kts | 355° |
| 2026-04-25 19:42 | 6.88541 | -61.05819 | 38854 ft | 461 kts | 355° |
| 2026-04-25 19:42 | 6.94940 | -61.06413 | 38852 ft | 462 kts | 355° |
| 2026-04-25 19:43 | 7.01342 | -61.07008 | 38855 ft | 463 kts | 355° |
| 2026-04-25 19:43 | 7.07726 | -61.07602 | 38853 ft | 463 kts | 355° |
| 2026-04-25 19:44 | 7.14137 | -61.08198 | 38856 ft | 462 kts | 355° |
| 2026-04-25 19:44 | 7.20550 | -61.08794 | 38854 ft | 462 kts | 355° |
| 2026-04-25 19:45 | 7.26955 | -61.09390 | 38852 ft | 462 kts | 355° |
| 2026-04-25 19:45 | 7.33315 | -61.09982 | 38856 ft | 462 kts | 355° |
| 2026-04-25 19:46 | 7.39721 | -61.10579 | 38854 ft | 461 kts | 355° |
| 2026-04-25 19:46 | 7.46116 | -61.11174 | 38855 ft | 461 kts | 355° |
| 2026-04-25 19:47 | 7.52498 | -61.11768 | 38858 ft | 461 kts | 355° |
| 2026-04-25 19:47 | 7.58884 | -61.12364 | 38858 ft | 460 kts | 355° |
| 2026-04-25 19:48 | 7.65265 | -61.12958 | 38859 ft | 461 kts | 355° |
| 2026-04-25 19:48 | 7.71646 | -61.13553 | 38861 ft | 460 kts | 355° |
| 2026-04-25 19:49 | 7.76949 | -61.14047 | 38858 ft | 460 kts | 355° |
| 2026-04-25 19:49 | 7.84372 | -61.14740 | 38860 ft | 460 kts | 355° |
| 2026-04-25 19:50 | 7.93889 | -61.15628 | 38858 ft | 459 kts | 354° |
| 2026-04-25 19:51 | 8.00253 | -61.16222 | 38856 ft | 459 kts | 354° |
| 2026-04-25 19:51 | 8.06617 | -61.16817 | 38854 ft | 459 kts | 354° |
| 2026-04-25 19:52 | 8.12997 | -61.17413 | 38856 ft | 459 kts | 354° |
| 2026-04-25 19:52 | 8.19353 | -61.18007 | 38856 ft | 459 kts | 354° |
| 2026-04-25 19:53 | 8.25669 | -61.18597 | 38858 ft | 458 kts | 354° |
| 2026-04-25 19:53 | 8.32033 | -61.19192 | 38858 ft | 458 kts | 354° |
| 2026-04-25 19:54 | 8.38395 | -61.19787 | 38860 ft | 458 kts | 354° |
| 2026-04-25 19:54 | 8.44750 | -61.20381 | 38863 ft | 458 kts | 354° |
| 2026-04-25 19:55 | 8.51110 | -61.20974 | 38867 ft | 458 kts | 354° |
| 2026-04-25 19:55 | 8.57422 | -61.21561 | 38865 ft | 458 kts | 354° |
| 2026-04-25 19:56 | 8.63779 | -61.22151 | 38866 ft | 459 kts | 354° |
| 2026-04-25 19:56 | 8.70136 | -61.22742 | 38869 ft | 459 kts | 354° |
| 2026-04-25 19:57 | 8.76501 | -61.23334 | 38868 ft | 459 kts | 354° |
| 2026-04-25 19:57 | 8.82879 | -61.23927 | 38869 ft | 459 kts | 354° |
| 2026-04-25 19:58 | 8.89254 | -61.24520 | 38872 ft | 460 kts | 354° |
| 2026-04-25 19:58 | 8.95590 | -61.25110 | 38872 ft | 460 kts | 354° |
| 2026-04-25 19:59 | 9.01973 | -61.25705 | 38875 ft | 460 kts | 354° |
| 2026-04-25 19:59 | 9.08354 | -61.26299 | 38875 ft | 461 kts | 354° |
| 2026-04-25 20:00 | 9.14758 | -61.26896 | 38881 ft | 462 kts | 355° |
| 2026-04-25 20:00 | 9.21164 | -61.27494 | 38878 ft | 463 kts | 355° |
| 2026-04-25 20:01 | 9.30768 | -61.28390 | 38883 ft | 462 kts | 355° |
| 2026-04-25 20:01 | 9.37191 | -61.28988 | 38880 ft | 464 kts | 355° |
| 2026-04-25 20:02 | 9.43614 | -61.29588 | 38876 ft | 463 kts | 354° |
| 2026-04-25 20:02 | 9.50001 | -61.30185 | 38884 ft | 464 kts | 354° |
| 2026-04-25 20:03 | 9.56423 | -61.30784 | 38892 ft | 463 kts | 354° |
| 2026-04-25 20:03 | 9.62444 | -61.31347 | 38886 ft | 464 kts | 354° |
| 2026-04-25 20:04 | 9.68876 | -61.31948 | 38887 ft | 463 kts | 354° |
| 2026-04-25 20:04 | 9.75305 | -61.32549 | 38894 ft | 463 kts | 354° |
| 2026-04-25 20:05 | 9.81730 | -61.33150 | 38895 ft | 463 kts | 354° |
| 2026-04-25 20:05 | 9.88154 | -61.33751 | 38899 ft | 463 kts | 354° |
| 2026-04-25 20:06 | 9.94582 | -61.34353 | 38895 ft | 463 kts | 354° |
| 2026-04-25 20:06 | 10.00972 | -61.34951 | 38865 ft | 462 kts | 354° |
| 2026-04-25 20:07 | 10.04161 | -61.35250 | 38600 ft | 459 kts | 354° |
| 2026-04-25 20:07 | 10.07336 | -61.35547 | 37992 ft | 459 kts | 354° |
| 2026-04-25 20:07 | 10.10518 | -61.35845 | 37248 ft | 460 kts | 354° |
| 2026-04-25 20:07 | 10.13714 | -61.36144 | 36481 ft | 462 kts | 354° |
| 2026-04-25 20:08 | 10.16930 | -61.36446 | 35714 ft | 464 kts | 354° |
| 2026-04-25 20:08 | 10.20166 | -61.36750 | 34965 ft | 467 kts | 354° |
| 2026-04-25 20:08 | 10.23412 | -61.37054 | 34208 ft | 469 kts | 354° |
| 2026-04-25 20:08 | 10.26635 | -61.37356 | 33387 ft | 472 kts | 353° |
| 2026-04-25 20:09 | 10.29914 | -61.37664 | 32557 ft | 474 kts | 354° |
| 2026-04-25 20:09 | 10.33211 | -61.37974 | 31699 ft | 477 kts | 354° |
| 2026-04-25 20:09 | 10.36530 | -61.38286 | 30849 ft | 479 kts | 354° |
| 2026-04-25 20:09 | 10.39864 | -61.38599 | 30048 ft | 481 kts | 354° |
| 2026-04-25 20:10 | 10.43191 | -61.38911 | 29380 ft | 477 kts | 354° |
| 2026-04-25 20:10 | 10.46469 | -61.39285 | 28796 ft | 470 kts | 350° |
| 2026-04-25 20:10 | 10.49645 | -61.39990 | 28195 ft | 465 kts | 345° |
| 2026-04-25 20:10 | 10.52762 | -61.40795 | 27579 ft | 460 kts | 345° |
| 2026-04-25 20:11 | 10.55854 | -61.41584 | 26979 ft | 456 kts | 346° |
| 2026-04-25 20:11 | 10.58881 | -61.42354 | 26409 ft | 451 kts | 346° |
| 2026-04-25 20:11 | 10.61913 | -61.43126 | 25827 ft | 447 kts | 346° |
| 2026-04-25 20:11 | 10.64918 | -61.43892 | 25279 ft | 443 kts | 346° |
| 2026-04-25 20:12 | 10.67894 | -61.44650 | 24745 ft | 438 kts | 346° |
| 2026-04-25 20:12 | 10.70823 | -61.45398 | 24210 ft | 434 kts | 346° |
| 2026-04-25 20:12 | 10.73741 | -61.46143 | 23736 ft | 429 kts | 346° |
| 2026-04-25 20:12 | 10.74719 | -61.46392 | 23564 ft | 427 kts | 346° |
| 2026-04-25 20:13 | 10.79476 | -61.47607 | 22522 ft | 422 kts | 346° |
| 2026-04-25 20:13 | 10.82311 | -61.48330 | 21910 ft | 418 kts | 346° |
| 2026-04-25 20:13 | 10.85127 | -61.49049 | 21314 ft | 415 kts | 346° |
| 2026-04-25 20:13 | 10.87883 | -61.49752 | 20736 ft | 411 kts | 346° |
| 2026-04-25 20:14 | 10.90652 | -61.50459 | 20163 ft | 408 kts | 346° |
| 2026-04-25 20:14 | 10.93398 | -61.51160 | 19604 ft | 405 kts | 346° |
| 2026-04-25 20:14 | 10.96121 | -61.51856 | 19058 ft | 402 kts | 346° |
| 2026-04-25 20:14 | 10.98821 | -61.52545 | 18521 ft | 399 kts | 346° |
| 2026-04-25 20:15 | 11.01150 | -61.53140 | 18032 ft | 397 kts | 346° |
| 2026-04-25 20:15 | 11.03812 | -61.53821 | 17458 ft | 393 kts | 346° |
| 2026-04-25 20:15 | 11.06461 | -61.54498 | 16882 ft | 390 kts | 346° |
| 2026-04-25 20:15 | 11.09084 | -61.55168 | 16336 ft | 386 kts | 346° |
| 2026-04-25 20:16 | 11.11684 | -61.55833 | 15786 ft | 383 kts | 346° |
| 2026-04-25 20:16 | 11.14224 | -61.56483 | 15258 ft | 380 kts | 346° |
| 2026-04-25 20:16 | 11.16777 | -61.57136 | 14740 ft | 377 kts | 346° |
| 2026-04-25 20:16 | 11.19320 | -61.57787 | 14222 ft | 375 kts | 346° |
| 2026-04-25 20:17 | 11.21838 | -61.58431 | 13721 ft | 372 kts | 346° |
| 2026-04-25 20:17 | 11.24341 | -61.59072 | 13162 ft | 369 kts | 346° |
| 2026-04-25 20:17 | 11.26824 | -61.59707 | 12610 ft | 366 kts | 346° |
| 2026-04-25 20:17 | 11.29289 | -61.60338 | 12085 ft | 364 kts | 346° |
| 2026-04-25 20:18 | 11.31737 | -61.60965 | 11565 ft | 361 kts | 346° |
| 2026-04-25 20:18 | 11.34167 | -61.61587 | 11050 ft | 358 kts | 346° |
| 2026-04-25 20:18 | 11.36263 | -61.62124 | 10604 ft | 356 kts | 346° |
| 2026-04-25 20:18 | 11.38650 | -61.62735 | 10261 ft | 349 kts | 346° |
| 2026-04-25 20:19 | 11.40963 | -61.63325 | 10125 ft | 335 kts | 346° |
| 2026-04-25 20:19 | 11.42438 | -61.63700 | 10044 ft | 325 kts | 346° |
| 2026-04-25 20:19 | 11.45268 | -61.64420 | 9812 ft | 307 kts | 346° |
| 2026-04-25 20:19 | 11.47327 | -61.64944 | 9268 ft | 304 kts | 346° |
| 2026-04-25 20:20 | 11.49378 | -61.65466 | 8853 ft | 302 kts | 346° |
| 2026-04-25 20:20 | 11.51353 | -61.66166 | 8468 ft | 300 kts | 334° |
| 2026-04-25 20:20 | 11.52551 | -61.66861 | 8210 ft | 299 kts | 325° |
| 2026-04-25 20:20 | 11.54192 | -61.68153 | 7838 ft | 296 kts | 321° |
| 2026-04-25 20:21 | 11.55807 | -61.69452 | 7465 ft | 295 kts | 321° |
| 2026-04-25 20:21 | 11.57418 | -61.70739 | 7087 ft | 294 kts | 321° |
| 2026-04-25 20:21 | 11.59022 | -61.72016 | 6739 ft | 291 kts | 321° |
| 2026-04-25 20:21 | 11.60620 | -61.73288 | 6382 ft | 290 kts | 321° |
| 2026-04-25 20:22 | 11.62205 | -61.74550 | 6022 ft | 288 kts | 322° |
| 2026-04-25 20:22 | 11.63248 | -61.75381 | 5764 ft | 287 kts | 322° |
| 2026-04-25 20:22 | 11.65350 | -61.77057 | 5238 ft | 286 kts | 322° |
| 2026-04-25 20:22 | 11.66912 | -61.78303 | 4910 ft | 283 kts | 322° |
| 2026-04-25 20:23 | 11.68463 | -61.79539 | 4555 ft | 282 kts | 322° |
| 2026-04-25 20:23 | 11.70005 | -61.80769 | 4174 ft | 281 kts | 322° |
| 2026-04-25 20:23 | 11.71540 | -61.81994 | 3823 ft | 279 kts | 322° |
| 2026-04-25 20:23 | 11.73066 | -61.83212 | 3477 ft | 278 kts | 322° |
| 2026-04-25 20:24 | 11.74570 | -61.84412 | 3148 ft | 276 kts | 322° |
| 2026-04-25 20:24 | 11.76070 | -61.85609 | 3027 ft | 277 kts | 322° |
| 2026-04-25 20:24 | 11.77591 | -61.86822 | 3002 ft | 277 kts | 322° |
| 2026-04-25 20:24 | 11.79100 | -61.88026 | 2997 ft | 273 kts | 322° |
| 2026-04-25 20:25 | 11.80559 | -61.89190 | 2997 ft | 258 kts | 322° |
| 2026-04-25 20:25 | 11.81931 | -61.90287 | 2993 ft | 243 kts | 322° |
| 2026-04-25 20:25 | 11.83223 | -61.91322 | 2992 ft | 229 kts | 323° |
| 2026-04-25 20:25 | 11.84453 | -61.92304 | 3008 ft | 227 kts | 322° |
| 2026-04-25 20:26 | 11.85702 | -61.93300 | 2996 ft | 226 kts | 322° |
| 2026-04-25 20:26 | 11.86920 | -61.94270 | 2975 ft | 218 kts | 322° |
| 2026-04-25 20:26 | 11.88099 | -61.95213 | 2774 ft | 213 kts | 322° |
| 2026-04-25 20:26 | 11.89279 | -61.96157 | 2448 ft | 217 kts | 322° |
| 2026-04-25 20:27 | 11.90551 | -61.96957 | 2167 ft | 213 kts | 345° |
| 2026-04-25 20:27 | 11.91988 | -61.97101 | 2008 ft | 204 kts | 4° |
| 2026-04-25 20:27 | 11.93435 | -61.97074 | 1996 ft | 212 kts | 3° |
| 2026-04-25 20:27 | 11.94898 | -61.97058 | 1992 ft | 208 kts | 3° |
| 2026-04-25 20:28 | 11.96333 | -61.97048 | 1995 ft | 211 kts | 2° |
| 2026-04-25 20:28 | 11.97791 | -61.97038 | 2034 ft | 202 kts | 5° |
| 2026-04-25 20:28 | 11.98952 | -61.96750 | 1891 ft | 190 kts | 30° |
| 2026-04-25 20:28 | 11.99926 | -61.95917 | 1731 ft | 180 kts | 57° |
| 2026-04-25 20:29 | 12.00430 | -61.94756 | 1702 ft | 180 kts | 81° |
| 2026-04-25 20:29 | 12.00470 | -61.93498 | 1694 ft | 172 kts | 94° |
| 2026-04-25 20:29 | 12.00459 | -61.92379 | 1707 ft | 142 kts | 92° |
| 2026-04-25 20:29 | 12.00459 | -61.91467 | 1693 ft | 130 kts | 91° |
| 2026-04-25 20:30 | 12.00457 | -61.90532 | 1698 ft | 130 kts | 92° |
| 2026-04-25 20:30 | 12.00456 | -61.89615 | 1701 ft | 129 kts | 91° |
| 2026-04-25 20:30 | 12.00453 | -61.88702 | 1701 ft | 128 kts | 92° |
| 2026-04-25 20:30 | 12.00450 | -61.87794 | 1563 ft | 130 kts | 92° |
| 2026-04-25 20:31 | 12.00446 | -61.86869 | 1390 ft | 130 kts | 92° |
| 2026-04-25 20:31 | 12.00440 | -61.85959 | 1223 ft | 128 kts | 92° |
| 2026-04-25 20:31 | 12.00433 | -61.85031 | 1045 ft | 130 kts | 92° |
| 2026-04-25 20:31 | 12.00426 | -61.84122 | 894 ft | 128 kts | 91° |
| 2026-04-25 20:32 | 12.00422 | -61.83208 | 738 ft | 128 kts | 93° |
| 2026-04-25 20:32 | 12.00419 | -61.82300 | 562 ft | 127 kts | 92° |
| 2026-04-25 20:32 | 12.00415 | -61.81385 | 396 ft | 130 kts | 92° |
| 2026-04-25 20:32 | 12.00427 | -61.80478 | 177 ft | 127 kts | 93° |
| 2026-04-25 20:33 | 12.00418 | -61.79584 | 50 ft | 126 kts | 94° |
| 2026-04-25 20:33 | 12.00409 | -61.78851 | 44 ft | 63 kts | 90° |
| 2026-04-25 20:33 | 12.00427 | -61.78620 | 45 ft | 21 kts | 42° |
| 2026-04-25 20:33 | 12.00512 | -61.78604 | 43 ft | 16 kts | 358° |
| 2026-04-25 20:34 | 12.00639 | -61.78647 | 41 ft | 13 kts | 352° |
| 2026-04-25 20:34 | 12.00649 | -61.78648 | 41 ft | 0 kts | 352° |